sensor_id;sensor_type;location;lat;lon;timestamp;P1;durP1;ratioP1;P2;durP2;ratioP2
54517;SDS011;40423;53.176;6.002;2023-02-28T00:01:00;10.80;;;3.88;;
54517;SDS011;40423;53.176;6.002;2023-02-28T00:03:26;9.73;;;3.35;;
54517;SDS011;40423;53.176;6.002;2023-02-28T00:05:52;11.13;;;3.67;;
54517;SDS011;40423;53.176;6.002;2023-02-28T00:08:17;12.35;;;4.50;;
54517;SDS011;40423;53.176;6.002;2023-02-28T00:10:43;13.82;;;3.65;;
54517;SDS011;40423;53.176;6.002;2023-02-28T00:13:09;15.05;;;3.80;;
54517;SDS011;40423;53.176;6.002;2023-02-28T00:15:35;9.73;;;3.83;;
54517;SDS011;40423;53.176;6.002;2023-02-28T00:18:02;8.85;;;4.15;;
54517;SDS011;40423;53.176;6.002;2023-02-28T00:20:31;15.25;;;3.80;;
54517;SDS011;40423;53.176;6.002;2023-02-28T00:22:57;12.77;;;3.55;;
54517;SDS011;40423;53.176;6.002;2023-02-28T00:25:23;8.45;;;3.25;;
54517;SDS011;40423;53.176;6.002;2023-02-28T00:27:50;16.30;;;3.67;;
54517;SDS011;40423;53.176;6.002;2023-02-28T00:30:17;11.75;;;3.78;;
54517;SDS011;40423;53.176;6.002;2023-02-28T00:32:47;9.75;;;4.10;;
54517;SDS011;40423;53.176;6.002;2023-02-28T00:35:13;10.90;;;3.40;;
54517;SDS011;40423;53.176;6.002;2023-02-28T00:37:39;7.60;;;3.13;;
54517;SDS011;40423;53.176;6.002;2023-02-28T00:40:05;9.25;;;3.00;;
54517;SDS011;40423;53.176;6.002;2023-02-28T00:42:34;10.50;;;4.03;;
54517;SDS011;40423;53.176;6.002;2023-02-28T00:45:00;10.75;;;3.97;;
54517;SDS011;40423;53.176;6.002;2023-02-28T00:47:26;8.50;;;3.28;;
54517;SDS011;40423;53.176;6.002;2023-02-28T00:49:52;9.52;;;3.83;;
54517;SDS011;40423;53.176;6.002;2023-02-28T00:52:17;12.63;;;4.15;;
54517;SDS011;40423;53.176;6.002;2023-02-28T00:54:43;7.40;;;3.17;;
54517;SDS011;40423;53.176;6.002;2023-02-28T00:57:09;10.57;;;3.35;;
54517;SDS011;40423;53.176;6.002;2023-02-28T00:59:35;9.25;;;5.10;;
54517;SDS011;40423;53.176;6.002;2023-02-28T01:02:03;11.52;;;4.15;;
54517;SDS011;40423;53.176;6.002;2023-02-28T01:04:29;12.35;;;4.15;;
54517;SDS011;40423;53.176;6.002;2023-02-28T01:06:54;11.07;;;4.03;;
54517;SDS011;40423;53.176;6.002;2023-02-28T01:09:20;9.27;;;4.28;;
54517;SDS011;40423;53.176;6.002;2023-02-28T01:11:46;12.40;;;4.50;;
54517;SDS011;40423;53.176;6.002;2023-02-28T01:14:12;8.20;;;3.70;;
54517;SDS011;40423;53.176;6.002;2023-02-28T01:16:39;15.05;;;5.13;;
54517;SDS011;40423;53.176;6.002;2023-02-28T01:19:05;10.60;;;3.88;;
54517;SDS011;40423;53.176;6.002;2023-02-28T01:21:30;7.88;;;3.95;;
54517;SDS011;40423;53.176;6.002;2023-02-28T01:23:57;8.20;;;2.67;;
54517;SDS011;40423;53.176;6.002;2023-02-28T01:26:22;14.85;;;3.70;;
54517;SDS011;40423;53.176;6.002;2023-02-28T01:28:49;8.55;;;3.10;;
54517;SDS011;40423;53.176;6.002;2023-02-28T01:31:20;8.07;;;3.55;;
54517;SDS011;40423;53.176;6.002;2023-02-28T01:33:46;14.95;;;3.95;;
54517;SDS011;40423;53.176;6.002;2023-02-28T01:36:16;7.80;;;3.25;;
54517;SDS011;40423;53.176;6.002;2023-02-28T01:38:44;10.55;;;3.60;;
54517;SDS011;40423;53.176;6.002;2023-02-28T01:41:16;11.90;;;3.80;;
54517;SDS011;40423;53.176;6.002;2023-02-28T01:46:11;9.68;;;2.90;;
54517;SDS011;40423;53.176;6.002;2023-02-28T01:48:39;13.13;;;3.42;;
54517;SDS011;40423;53.176;6.002;2023-02-28T01:51:22;7.55;;;3.13;;
54517;SDS011;40423;53.176;6.002;2023-02-28T01:53:58;8.45;;;3.28;;
54517;SDS011;40423;53.176;6.002;2023-02-28T01:56:28;9.55;;;2.70;;
54517;SDS011;40423;53.176;6.002;2023-02-28T01:58:57;8.93;;;2.92;;
54517;SDS011;40423;53.176;6.002;2023-02-28T02:01:24;8.73;;;3.63;;
54517;SDS011;40423;53.176;6.002;2023-02-28T02:03:55;9.13;;;3.45;;
54517;SDS011;40423;53.176;6.002;2023-02-28T02:06:34;10.25;;;3.22;;
54517;SDS011;40423;53.176;6.002;2023-02-28T02:09:12;11.23;;;2.80;;
54517;SDS011;40423;53.176;6.002;2023-02-28T02:11:42;13.90;;;3.30;;
54517;SDS011;40423;53.176;6.002;2023-02-28T02:14:32;11.57;;;2.85;;
54517;SDS011;40423;53.176;6.002;2023-02-28T02:36:39;12.68;;;2.97;;
54517;SDS011;40423;53.176;6.002;2023-02-28T02:39:14;11.25;;;2.60;;
54517;SDS011;40423;53.176;6.002;2023-02-28T02:41:47;11.13;;;2.95;;
54517;SDS011;40423;53.176;6.002;2023-02-28T02:44:24;12.18;;;3.38;;
54517;SDS011;40423;53.176;6.002;2023-02-28T02:47:03;10.02;;;3.28;;
54517;SDS011;40423;53.176;6.002;2023-02-28T02:49:39;6.55;;;1.92;;
54517;SDS011;40423;53.176;6.002;2023-02-28T02:52:12;9.80;;;3.13;;
54517;SDS011;40423;53.176;6.002;2023-02-28T02:54:43;10.02;;;3.10;;
54517;SDS011;40423;53.176;6.002;2023-02-28T02:57:20;7.40;;;2.70;;
54517;SDS011;40423;53.176;6.002;2023-02-28T02:59:53;10.43;;;2.47;;
54517;SDS011;40423;53.176;6.002;2023-02-28T03:02:24;7.20;;;2.33;;
54517;SDS011;40423;53.176;6.002;2023-02-28T03:04:56;8.20;;;2.55;;
54517;SDS011;40423;53.176;6.002;2023-02-28T03:07:26;8.40;;;3.00;;
54517;SDS011;40423;53.176;6.002;2023-02-28T03:09:52;5.72;;;2.42;;
54517;SDS011;40423;53.176;6.002;2023-02-28T03:12:19;6.95;;;2.22;;
54517;SDS011;40423;53.176;6.002;2023-02-28T03:14:55;11.60;;;3.05;;
54517;SDS011;40423;53.176;6.002;2023-02-28T03:20:23;12.68;;;3.40;;
54517;SDS011;40423;53.176;6.002;2023-02-28T03:23:23;6.93;;;2.40;;
54517;SDS011;40423;53.176;6.002;2023-02-28T03:26:25;10.02;;;2.92;;
54517;SDS011;40423;53.176;6.002;2023-02-28T03:29:00;13.80;;;3.55;;
54517;SDS011;40423;53.176;6.002;2023-02-28T03:31:36;7.72;;;2.72;;
54517;SDS011;40423;53.176;6.002;2023-02-28T03:34:29;11.27;;;3.08;;
54517;SDS011;40423;53.176;6.002;2023-02-28T03:36:59;9.98;;;3.22;;
54517;SDS011;40423;53.176;6.002;2023-02-28T03:39:36;10.30;;;3.17;;
54517;SDS011;40423;53.176;6.002;2023-02-28T03:42:07;9.65;;;3.17;;
54517;SDS011;40423;53.176;6.002;2023-02-28T03:44:41;9.30;;;3.22;;
54517;SDS011;40423;53.176;6.002;2023-02-28T03:47:14;6.60;;;2.95;;
54517;SDS011;40423;53.176;6.002;2023-02-28T03:52:13;5.45;;;2.60;;
54517;SDS011;40423;53.176;6.002;2023-02-28T03:54:42;11.00;;;2.85;;
54517;SDS011;40423;53.176;6.002;2023-02-28T03:57:26;7.07;;;2.70;;
54517;SDS011;40423;53.176;6.002;2023-02-28T04:00:04;12.48;;;3.10;;
54517;SDS011;40423;53.176;6.002;2023-02-28T04:02:38;10.25;;;2.78;;
54517;SDS011;40423;53.176;6.002;2023-02-28T04:05:05;11.07;;;2.88;;
54517;SDS011;40423;53.176;6.002;2023-02-28T04:07:32;7.65;;;2.70;;
54517;SDS011;40423;53.176;6.002;2023-02-28T04:09:58;6.53;;;2.80;;
54517;SDS011;40423;53.176;6.002;2023-02-28T04:12:24;4.90;;;2.38;;
54517;SDS011;40423;53.176;6.002;2023-02-28T04:14:50;10.27;;;2.28;;
54517;SDS011;40423;53.176;6.002;2023-02-28T04:17:16;7.60;;;2.58;;
54517;SDS011;40423;53.176;6.002;2023-02-28T04:19:42;12.00;;;4.00;;
54517;SDS011;40423;53.176;6.002;2023-02-28T04:22:11;5.85;;;2.35;;
54517;SDS011;40423;53.176;6.002;2023-02-28T04:24:36;6.85;;;2.63;;
54517;SDS011;40423;53.176;6.002;2023-02-28T04:27:06;5.25;;;2.38;;
54517;SDS011;40423;53.176;6.002;2023-02-28T04:29:33;6.18;;;2.67;;
54517;SDS011;40423;53.176;6.002;2023-02-28T04:31:59;7.63;;;2.90;;
54517;SDS011;40423;53.176;6.002;2023-02-28T04:34:26;10.63;;;3.92;;
54517;SDS011;40423;53.176;6.002;2023-02-28T04:36:54;7.40;;;2.78;;
54517;SDS011;40423;53.176;6.002;2023-02-28T04:39:21;5.82;;;2.97;;
54517;SDS011;40423;53.176;6.002;2023-02-28T04:41:50;9.48;;;2.85;;
54517;SDS011;40423;53.176;6.002;2023-02-28T04:44:16;10.07;;;3.13;;
54517;SDS011;40423;53.176;6.002;2023-02-28T04:46:42;9.38;;;2.70;;
54517;SDS011;40423;53.176;6.002;2023-02-28T04:49:12;4.53;;;2.17;;
54517;SDS011;40423;53.176;6.002;2023-02-28T04:51:38;6.55;;;2.30;;
54517;SDS011;40423;53.176;6.002;2023-02-28T04:54:04;4.65;;;2.13;;
54517;SDS011;40423;53.176;6.002;2023-02-28T04:56:29;8.88;;;3.00;;
54517;SDS011;40423;53.176;6.002;2023-02-28T04:58:55;6.60;;;2.60;;
54517;SDS011;40423;53.176;6.002;2023-02-28T05:01:22;8.30;;;2.47;;
54517;SDS011;40423;53.176;6.002;2023-02-28T05:03:54;5.20;;;2.53;;
54517;SDS011;40423;53.176;6.002;2023-02-28T05:06:22;4.72;;;1.70;;
54517;SDS011;40423;53.176;6.002;2023-02-28T05:08:49;4.35;;;1.92;;
54517;SDS011;40423;53.176;6.002;2023-02-28T05:11:16;8.73;;;2.65;;
54517;SDS011;40423;53.176;6.002;2023-02-28T05:13:45;8.23;;;2.83;;
54517;SDS011;40423;53.176;6.002;2023-02-28T05:16:14;9.35;;;2.65;;
54517;SDS011;40423;53.176;6.002;2023-02-28T05:18:41;4.57;;;3.17;;
54517;SDS011;40423;53.176;6.002;2023-02-28T05:21:13;8.45;;;2.78;;
54517;SDS011;40423;53.176;6.002;2023-02-28T05:23:50;7.05;;;3.00;;
54517;SDS011;40423;53.176;6.002;2023-02-28T05:26:16;6.40;;;3.60;;
54517;SDS011;40423;53.176;6.002;2023-02-28T05:28:42;5.38;;;3.13;;
54517;SDS011;40423;53.176;6.002;2023-02-28T05:31:09;6.63;;;3.35;;
54517;SDS011;40423;53.176;6.002;2023-02-28T05:33:36;6.15;;;4.40;;
54517;SDS011;40423;53.176;6.002;2023-02-28T05:36:02;5.90;;;4.32;;
54517;SDS011;40423;53.176;6.002;2023-02-28T05:38:28;8.32;;;5.57;;
54517;SDS011;40423;53.176;6.002;2023-02-28T05:40:53;7.43;;;5.55;;
54517;SDS011;40423;53.176;6.002;2023-02-28T05:43:19;6.90;;;4.80;;
54517;SDS011;40423;53.176;6.002;2023-02-28T05:45:45;7.28;;;5.32;;
54517;SDS011;40423;53.176;6.002;2023-02-28T05:48:10;7.28;;;4.78;;
54517;SDS011;40423;53.176;6.002;2023-02-28T05:50:36;6.43;;;4.32;;
54517;SDS011;40423;53.176;6.002;2023-02-28T05:53:02;5.35;;;4.32;;
54517;SDS011;40423;53.176;6.002;2023-02-28T05:55:28;7.35;;;5.28;;
54517;SDS011;40423;53.176;6.002;2023-02-28T05:57:53;7.05;;;4.53;;
54517;SDS011;40423;53.176;6.002;2023-02-28T06:00:19;5.50;;;4.00;;
54517;SDS011;40423;53.176;6.002;2023-02-28T06:02:45;6.65;;;4.82;;
54517;SDS011;40423;53.176;6.002;2023-02-28T06:05:15;7.20;;;4.72;;
54517;SDS011;40423;53.176;6.002;2023-02-28T06:07:42;8.85;;;4.85;;
54517;SDS011;40423;53.176;6.002;2023-02-28T06:10:09;6.55;;;5.20;;
54517;SDS011;40423;53.176;6.002;2023-02-28T06:12:36;10.50;;;6.25;;
54517;SDS011;40423;53.176;6.002;2023-02-28T06:15:02;6.72;;;5.18;;
54517;SDS011;40423;53.176;6.002;2023-02-28T06:17:29;7.57;;;5.70;;
54517;SDS011;40423;53.176;6.002;2023-02-28T06:19:54;7.50;;;5.60;;
54517;SDS011;40423;53.176;6.002;2023-02-28T06:22:20;8.50;;;6.13;;
54517;SDS011;40423;53.176;6.002;2023-02-28T06:24:46;8.00;;;5.85;;
54517;SDS011;40423;53.176;6.002;2023-02-28T06:27:12;8.68;;;5.95;;
54517;SDS011;40423;53.176;6.002;2023-02-28T06:29:37;9.13;;;5.63;;
54517;SDS011;40423;53.176;6.002;2023-02-28T06:32:06;7.30;;;5.13;;
54517;SDS011;40423;53.176;6.002;2023-02-28T06:34:31;8.38;;;5.47;;
54517;SDS011;40423;53.176;6.002;2023-02-28T06:36:59;10.25;;;6.25;;
54517;SDS011;40423;53.176;6.002;2023-02-28T06:39:27;6.93;;;5.03;;
54517;SDS011;40423;53.176;6.002;2023-02-28T06:41:54;7.13;;;5.22;;
54517;SDS011;40423;53.176;6.002;2023-02-28T06:44:19;6.88;;;5.10;;
54517;SDS011;40423;53.176;6.002;2023-02-28T06:46:46;7.82;;;6.00;;
54517;SDS011;40423;53.176;6.002;2023-02-28T06:49:12;10.50;;;6.60;;
54517;SDS011;40423;53.176;6.002;2023-02-28T06:51:39;8.73;;;6.38;;
54517;SDS011;40423;53.176;6.002;2023-02-28T06:54:10;9.38;;;6.97;;
54517;SDS011;40423;53.176;6.002;2023-02-28T06:56:36;8.65;;;6.20;;
54517;SDS011;40423;53.176;6.002;2023-02-28T06:59:05;11.70;;;8.02;;
54517;SDS011;40423;53.176;6.002;2023-02-28T07:01:31;12.52;;;8.68;;
54517;SDS011;40423;53.176;6.002;2023-02-28T07:04:00;11.40;;;8.40;;
54517;SDS011;40423;53.176;6.002;2023-02-28T07:06:26;12.63;;;8.70;;
54517;SDS011;40423;53.176;6.002;2023-02-28T07:08:53;14.45;;;9.15;;
54517;SDS011;40423;53.176;6.002;2023-02-28T07:11:21;16.10;;;9.43;;
54517;SDS011;40423;53.176;6.002;2023-02-28T07:13:50;14.77;;;9.25;;
54517;SDS011;40423;53.176;6.002;2023-02-28T07:16:17;14.45;;;10.40;;
54517;SDS011;40423;53.176;6.002;2023-02-28T07:18:43;16.25;;;10.45;;
54517;SDS011;40423;53.176;6.002;2023-02-28T07:21:09;14.40;;;10.00;;
54517;SDS011;40423;53.176;6.002;2023-02-28T07:23:36;15.63;;;11.05;;
54517;SDS011;40423;53.176;6.002;2023-02-28T07:26:11;13.85;;;9.82;;
54517;SDS011;40423;53.176;6.002;2023-02-28T07:28:40;15.98;;;10.25;;
54517;SDS011;40423;53.176;6.002;2023-02-28T07:31:10;17.27;;;11.63;;
54517;SDS011;40423;53.176;6.002;2023-02-28T07:33:36;17.85;;;11.98;;
54517;SDS011;40423;53.176;6.002;2023-02-28T07:36:06;15.60;;;11.20;;
54517;SDS011;40423;53.176;6.002;2023-02-28T07:38:34;15.77;;;10.10;;
54517;SDS011;40423;53.176;6.002;2023-02-28T07:41:02;16.10;;;10.85;;
54517;SDS011;40423;53.176;6.002;2023-02-28T07:43:31;14.63;;;10.68;;
54517;SDS011;40423;53.176;6.002;2023-02-28T07:46:04;15.55;;;10.60;;
54517;SDS011;40423;53.176;6.002;2023-02-28T07:48:31;16.20;;;11.45;;
54517;SDS011;40423;53.176;6.002;2023-02-28T07:50:57;14.88;;;10.40;;
54517;SDS011;40423;53.176;6.002;2023-02-28T07:53:24;13.98;;;10.18;;
54517;SDS011;40423;53.176;6.002;2023-02-28T07:55:50;16.10;;;11.32;;
54517;SDS011;40423;53.176;6.002;2023-02-28T07:58:16;15.82;;;11.50;;
54517;SDS011;40423;53.176;6.002;2023-02-28T08:00:42;18.52;;;11.50;;
54517;SDS011;40423;53.176;6.002;2023-02-28T08:03:10;17.00;;;11.68;;
54517;SDS011;40423;53.176;6.002;2023-02-28T08:05:40;14.30;;;10.77;;
54517;SDS011;40423;53.176;6.002;2023-02-28T08:08:06;14.07;;;10.15;;
54517;SDS011;40423;53.176;6.002;2023-02-28T08:10:33;15.88;;;11.77;;
54517;SDS011;40423;53.176;6.002;2023-02-28T08:12:59;16.90;;;11.73;;
54517;SDS011;40423;53.176;6.002;2023-02-28T08:15:25;17.10;;;12.38;;
54517;SDS011;40423;53.176;6.002;2023-02-28T08:17:51;17.92;;;11.30;;
54517;SDS011;40423;53.176;6.002;2023-02-28T08:20:17;15.93;;;11.73;;
54517;SDS011;40423;53.176;6.002;2023-02-28T08:22:46;16.60;;;11.52;;
54517;SDS011;40423;53.176;6.002;2023-02-28T08:25:11;17.80;;;11.48;;
54517;SDS011;40423;53.176;6.002;2023-02-28T08:27:37;14.82;;;11.02;;
54517;SDS011;40423;53.176;6.002;2023-02-28T08:30:03;18.40;;;11.75;;
54517;SDS011;40423;53.176;6.002;2023-02-28T08:32:29;15.05;;;11.30;;
54517;SDS011;40423;53.176;6.002;2023-02-28T08:34:55;16.83;;;12.68;;
54517;SDS011;40423;53.176;6.002;2023-02-28T08:37:21;18.15;;;11.98;;
54517;SDS011;40423;53.176;6.002;2023-02-28T08:39:46;18.90;;;12.50;;
54517;SDS011;40423;53.176;6.002;2023-02-28T08:42:12;14.98;;;11.48;;
54517;SDS011;40423;53.176;6.002;2023-02-28T08:44:38;16.60;;;11.18;;
54517;SDS011;40423;53.176;6.002;2023-02-28T08:47:07;15.52;;;11.32;;
54517;SDS011;40423;53.176;6.002;2023-02-28T08:49:32;15.30;;;11.18;;
54517;SDS011;40423;53.176;6.002;2023-02-28T08:51:58;15.73;;;11.38;;
54517;SDS011;40423;53.176;6.002;2023-02-28T08:54:24;18.63;;;12.63;;
54517;SDS011;40423;53.176;6.002;2023-02-28T08:56:50;17.30;;;13.15;;
54517;SDS011;40423;53.176;6.002;2023-02-28T08:59:15;18.73;;;13.35;;
54517;SDS011;40423;53.176;6.002;2023-02-28T09:01:41;19.38;;;12.35;;
54517;SDS011;40423;53.176;6.002;2023-02-28T09:04:08;16.33;;;11.27;;
54517;SDS011;40423;53.176;6.002;2023-02-28T09:06:35;19.35;;;12.95;;
54517;SDS011;40423;53.176;6.002;2023-02-28T09:09:01;16.70;;;12.38;;
54517;SDS011;40423;53.176;6.002;2023-02-28T09:11:29;18.83;;;11.55;;
54517;SDS011;40423;53.176;6.002;2023-02-28T09:13:55;19.13;;;12.05;;
54517;SDS011;40423;53.176;6.002;2023-02-28T09:16:21;17.48;;;12.68;;
54517;SDS011;40423;53.176;6.002;2023-02-28T09:18:47;15.48;;;11.27;;
54517;SDS011;40423;53.176;6.002;2023-02-28T09:21:17;16.45;;;11.95;;
54517;SDS011;40423;53.176;6.002;2023-02-28T09:23:47;19.13;;;13.63;;
54517;SDS011;40423;53.176;6.002;2023-02-28T09:26:15;15.95;;;11.27;;
54517;SDS011;40423;53.176;6.002;2023-02-28T09:28:42;17.73;;;12.73;;
54517;SDS011;40423;53.176;6.002;2023-02-28T09:31:15;19.70;;;13.07;;
54517;SDS011;40423;53.176;6.002;2023-02-28T09:33:49;18.05;;;12.23;;
54517;SDS011;40423;53.176;6.002;2023-02-28T09:36:16;18.17;;;13.32;;
54517;SDS011;40423;53.176;6.002;2023-02-28T09:38:43;16.33;;;12.13;;
54517;SDS011;40423;53.176;6.002;2023-02-28T09:41:15;15.00;;;10.85;;
54517;SDS011;40423;53.176;6.002;2023-02-28T09:43:45;16.38;;;11.30;;
54517;SDS011;40423;53.176;6.002;2023-02-28T09:49:12;17.15;;;11.32;;
54517;SDS011;40423;53.176;6.002;2023-02-28T09:54:20;17.38;;;12.02;;
54517;SDS011;40423;53.176;6.002;2023-02-28T09:56:54;14.50;;;11.73;;
54517;SDS011;40423;53.176;6.002;2023-02-28T09:59:32;14.85;;;10.43;;
54517;SDS011;40423;53.176;6.002;2023-02-28T10:10:59;12.85;;;9.98;;
54517;SDS011;40423;53.176;6.002;2023-02-28T10:13:34;13.35;;;9.95;;
54517;SDS011;40423;53.176;6.002;2023-02-28T10:16:16;14.35;;;10.02;;
54517;SDS011;40423;53.176;6.002;2023-02-28T10:19:09;16.27;;;9.50;;
54517;SDS011;40423;53.176;6.002;2023-02-28T10:21:48;16.13;;;10.57;;
54517;SDS011;40423;53.176;6.002;2023-02-28T10:24:35;15.25;;;9.65;;
54517;SDS011;40423;53.176;6.002;2023-02-28T10:29:46;13.75;;;8.55;;
54517;SDS011;40423;53.176;6.002;2023-02-28T10:32:24;13.60;;;9.40;;
54517;SDS011;40423;53.176;6.002;2023-02-28T10:34:55;11.55;;;8.00;;
54517;SDS011;40423;53.176;6.002;2023-02-28T10:37:25;11.77;;;8.20;;
54517;SDS011;40423;53.176;6.002;2023-02-28T10:39:54;10.10;;;7.10;;
54517;SDS011;40423;53.176;6.002;2023-02-28T10:47:36;16.40;;;8.10;;
54517;SDS011;40423;53.176;6.002;2023-02-28T11:01:22;9.18;;;5.78;;
54517;SDS011;40423;53.176;6.002;2023-02-28T11:03:48;10.93;;;7.20;;
54517;SDS011;40423;53.176;6.002;2023-02-28T11:08:46;9.93;;;6.45;;
54517;SDS011;40423;53.176;6.002;2023-02-28T11:11:16;9.15;;;5.50;;
54517;SDS011;40423;53.176;6.002;2023-02-28T11:13:44;8.00;;;4.72;;
54517;SDS011;40423;53.176;6.002;2023-02-28T11:16:12;6.68;;;4.65;;
54517;SDS011;40423;53.176;6.002;2023-02-28T11:21:25;6.88;;;4.90;;
54517;SDS011;40423;53.176;6.002;2023-02-28T11:24:00;7.68;;;4.60;;
54517;SDS011;40423;53.176;6.002;2023-02-28T11:26:50;7.00;;;4.03;;
54517;SDS011;40423;53.176;6.002;2023-02-28T11:34:27;6.35;;;4.35;;
54517;SDS011;40423;53.176;6.002;2023-02-28T11:36:57;7.28;;;4.53;;
54517;SDS011;40423;53.176;6.002;2023-02-28T11:39:24;6.88;;;4.32;;
54517;SDS011;40423;53.176;6.002;2023-02-28T11:45:17;6.78;;;4.25;;
54517;SDS011;40423;53.176;6.002;2023-02-28T11:50:52;4.75;;;3.20;;
54517;SDS011;40423;53.176;6.002;2023-02-28T11:56:12;5.97;;;3.15;;
54517;SDS011;40423;53.176;6.002;2023-02-28T12:04:10;7.07;;;4.13;;
54517;SDS011;40423;53.176;6.002;2023-02-28T12:12:19;7.65;;;4.10;;
54517;SDS011;40423;53.176;6.002;2023-02-28T12:27:00;5.82;;;3.92;;
54517;SDS011;40423;53.176;6.002;2023-02-28T12:29:32;7.28;;;4.32;;
54517;SDS011;40423;53.176;6.002;2023-02-28T12:32:06;6.20;;;4.10;;
54517;SDS011;40423;53.176;6.002;2023-02-28T12:37:10;7.10;;;4.60;;
54517;SDS011;40423;53.176;6.002;2023-02-28T12:39:44;5.47;;;4.30;;
54517;SDS011;40423;53.176;6.002;2023-02-28T12:42:45;6.80;;;4.10;;
54517;SDS011;40423;53.176;6.002;2023-02-28T12:48:04;6.28;;;4.40;;
54517;SDS011;40423;53.176;6.002;2023-02-28T12:50:33;7.75;;;4.10;;
54517;SDS011;40423;53.176;6.002;2023-02-28T12:59:44;6.65;;;4.35;;
54517;SDS011;40423;53.176;6.002;2023-02-28T13:10:42;8.07;;;4.20;;
54517;SDS011;40423;53.176;6.002;2023-02-28T13:13:14;6.63;;;4.10;;
54517;SDS011;40423;53.176;6.002;2023-02-28T13:15:56;8.10;;;4.60;;
54517;SDS011;40423;53.176;6.002;2023-02-28T13:18:44;6.28;;;4.05;;
54517;SDS011;40423;53.176;6.002;2023-02-28T13:21:24;6.32;;;4.35;;
54517;SDS011;40423;53.176;6.002;2023-02-28T13:26:22;7.93;;;4.00;;
54517;SDS011;40423;53.176;6.002;2023-02-28T13:34:31;6.68;;;3.72;;
54517;SDS011;40423;53.176;6.002;2023-02-28T13:42:35;6.70;;;4.38;;
54517;SDS011;40423;53.176;6.002;2023-02-28T14:09:22;7.03;;;3.85;;
54517;SDS011;40423;53.176;6.002;2023-02-28T14:11:50;6.97;;;4.28;;
54517;SDS011;40423;53.176;6.002;2023-02-28T14:17:14;5.85;;;4.00;;
54517;SDS011;40423;53.176;6.002;2023-02-28T14:19:44;6.47;;;4.03;;
54517;SDS011;40423;53.176;6.002;2023-02-28T14:31:37;7.10;;;3.80;;
54517;SDS011;40423;53.176;6.002;2023-02-28T14:34:45;6.40;;;3.95;;
54517;SDS011;40423;53.176;6.002;2023-02-28T14:37:27;4.80;;;3.55;;
54517;SDS011;40423;53.176;6.002;2023-02-28T14:39:56;5.20;;;3.63;;
54517;SDS011;40423;53.176;6.002;2023-02-28T14:44:59;7.90;;;4.20;;
54517;SDS011;40423;53.176;6.002;2023-02-28T14:47:35;4.53;;;3.38;;
54517;SDS011;40423;53.176;6.002;2023-02-28T14:50:01;6.03;;;3.60;;
54517;SDS011;40423;53.176;6.002;2023-02-28T14:52:34;6.45;;;3.72;;
54517;SDS011;40423;53.176;6.002;2023-02-28T14:55:02;6.45;;;3.92;;
54517;SDS011;40423;53.176;6.002;2023-02-28T14:57:39;6.35;;;3.90;;
54517;SDS011;40423;53.176;6.002;2023-02-28T15:00:11;7.25;;;4.07;;
54517;SDS011;40423;53.176;6.002;2023-02-28T15:02:45;8.85;;;4.07;;
54517;SDS011;40423;53.176;6.002;2023-02-28T15:07:43;5.88;;;3.65;;
54517;SDS011;40423;53.176;6.002;2023-02-28T15:12:57;8.05;;;4.35;;
54517;SDS011;40423;53.176;6.002;2023-02-28T15:15:35;6.05;;;3.78;;
54517;SDS011;40423;53.176;6.002;2023-02-28T15:18:05;6.45;;;3.92;;
54517;SDS011;40423;53.176;6.002;2023-02-28T15:20:32;5.00;;;3.90;;
54517;SDS011;40423;53.176;6.002;2023-02-28T15:23:00;7.93;;;4.13;;
54517;SDS011;40423;53.176;6.002;2023-02-28T15:25:26;7.68;;;3.60;;
54517;SDS011;40423;53.176;6.002;2023-02-28T15:27:53;6.97;;;3.53;;
54517;SDS011;40423;53.176;6.002;2023-02-28T15:30:25;4.82;;;3.65;;
54517;SDS011;40423;53.176;6.002;2023-02-28T15:33:29;5.57;;;3.65;;
54517;SDS011;40423;53.176;6.002;2023-02-28T15:36:03;7.53;;;3.95;;
54517;SDS011;40423;53.176;6.002;2023-02-28T15:38:37;8.43;;;3.38;;
54517;SDS011;40423;53.176;6.002;2023-02-28T15:41:03;6.28;;;3.60;;
54517;SDS011;40423;53.176;6.002;2023-02-28T15:43:36;8.18;;;4.00;;
54517;SDS011;40423;53.176;6.002;2023-02-28T15:46:08;7.18;;;4.03;;
54517;SDS011;40423;53.176;6.002;2023-02-28T15:51:14;6.55;;;3.75;;
54517;SDS011;40423;53.176;6.002;2023-02-28T15:56:44;6.22;;;3.50;;
54517;SDS011;40423;53.176;6.002;2023-02-28T15:59:19;6.15;;;3.92;;
54517;SDS011;40423;53.176;6.002;2023-02-28T16:04:28;6.72;;;4.05;;
54517;SDS011;40423;53.176;6.002;2023-02-28T16:09:25;8.05;;;4.43;;
54517;SDS011;40423;53.176;6.002;2023-02-28T16:11:53;8.90;;;3.45;;
54517;SDS011;40423;53.176;6.002;2023-02-28T16:14:22;5.97;;;3.80;;
54517;SDS011;40423;53.176;6.002;2023-02-28T16:16:56;6.30;;;4.13;;
54517;SDS011;40423;53.176;6.002;2023-02-28T16:19:28;6.75;;;4.32;;
54517;SDS011;40423;53.176;6.002;2023-02-28T16:21:54;7.57;;;4.78;;
54517;SDS011;40423;53.176;6.002;2023-02-28T16:24:20;5.72;;;4.47;;
54517;SDS011;40423;53.176;6.002;2023-02-28T16:26:46;5.88;;;4.28;;
54517;SDS011;40423;53.176;6.002;2023-02-28T16:29:14;7.40;;;4.30;;
54517;SDS011;40423;53.176;6.002;2023-02-28T16:31:49;7.10;;;4.50;;
54517;SDS011;40423;53.176;6.002;2023-02-28T16:34:14;7.22;;;5.07;;
54517;SDS011;40423;53.176;6.002;2023-02-28T16:36:40;7.32;;;4.80;;
54517;SDS011;40423;53.176;6.002;2023-02-28T16:39:06;8.23;;;5.15;;
54517;SDS011;40423;53.176;6.002;2023-02-28T16:41:32;7.72;;;5.03;;
54517;SDS011;40423;53.176;6.002;2023-02-28T16:43:59;8.23;;;5.18;;
54517;SDS011;40423;53.176;6.002;2023-02-28T16:46:33;9.05;;;5.53;;
54517;SDS011;40423;53.176;6.002;2023-02-28T16:48:59;7.50;;;5.15;;
54517;SDS011;40423;53.176;6.002;2023-02-28T16:51:26;7.90;;;4.45;;
54517;SDS011;40423;53.176;6.002;2023-02-28T16:53:51;6.82;;;5.03;;
54517;SDS011;40423;53.176;6.002;2023-02-28T16:56:18;8.60;;;5.63;;
54517;SDS011;40423;53.176;6.002;2023-02-28T16:58:46;8.98;;;5.07;;
54517;SDS011;40423;53.176;6.002;2023-02-28T17:01:13;8.10;;;5.10;;
54517;SDS011;40423;53.176;6.002;2023-02-28T17:03:40;7.95;;;5.28;;
54517;SDS011;40423;53.176;6.002;2023-02-28T17:06:20;8.07;;;5.40;;
54517;SDS011;40423;53.176;6.002;2023-02-28T17:08:50;6.88;;;4.97;;
54517;SDS011;40423;53.176;6.002;2023-02-28T17:11:17;8.02;;;5.68;;
54517;SDS011;40423;53.176;6.002;2023-02-28T17:13:43;8.75;;;5.63;;
54517;SDS011;40423;53.176;6.002;2023-02-28T17:16:28;10.73;;;7.38;;
54517;SDS011;40423;53.176;6.002;2023-02-28T17:18:57;25.85;;;13.10;;
54517;SDS011;40423;53.176;6.002;2023-02-28T17:21:24;22.95;;;10.77;;
54517;SDS011;40423;53.176;6.002;2023-02-28T17:23:50;15.55;;;8.95;;
54517;SDS011;40423;53.176;6.002;2023-02-28T17:26:19;14.50;;;6.85;;
54517;SDS011;40423;53.176;6.002;2023-02-28T17:28:48;11.73;;;5.93;;
54517;SDS011;40423;53.176;6.002;2023-02-28T17:31:16;12.65;;;7.30;;
54517;SDS011;40423;53.176;6.002;2023-02-28T17:33:42;11.65;;;6.82;;
54517;SDS011;40423;53.176;6.002;2023-02-28T17:36:13;12.13;;;7.85;;
54517;SDS011;40423;53.176;6.002;2023-02-28T17:38:40;11.15;;;7.97;;
54517;SDS011;40423;53.176;6.002;2023-02-28T17:41:07;11.38;;;7.35;;
54517;SDS011;40423;53.176;6.002;2023-02-28T17:43:35;10.73;;;7.25;;
54517;SDS011;40423;53.176;6.002;2023-02-28T17:46:01;12.23;;;7.82;;
54517;SDS011;40423;53.176;6.002;2023-02-28T17:48:26;9.68;;;6.93;;
54517;SDS011;40423;53.176;6.002;2023-02-28T17:50:52;11.93;;;7.32;;
54517;SDS011;40423;53.176;6.002;2023-02-28T17:53:21;11.85;;;8.20;;
54517;SDS011;40423;53.176;6.002;2023-02-28T17:55:48;11.90;;;7.20;;
54517;SDS011;40423;53.176;6.002;2023-02-28T17:58:14;11.02;;;7.82;;
54517;SDS011;40423;53.176;6.002;2023-02-28T18:00:40;9.98;;;7.22;;
54517;SDS011;40423;53.176;6.002;2023-02-28T18:03:06;11.65;;;7.40;;
54517;SDS011;40423;53.176;6.002;2023-02-28T18:05:33;13.15;;;7.60;;